sensor_id;sensor_type;location;lat;lon;timestamp;pressure;altitude;pressure_sealevel;temperature;humidity
59168;BME280;44948;55.046;73.266;2022-10-16T00:00:31;100782.72;;;9.01;70.18
59168;BME280;44948;55.046;73.266;2022-10-16T00:02:13;100787.13;;;9.01;69.45
59168;BME280;44948;55.046;73.266;2022-10-16T00:03:57;100791.41;;;9.02;69.15
59168;BME280;44948;55.046;73.266;2022-10-16T00:05:42;100793.09;;;9.03;69.71
59168;BME280;44948;55.046;73.266;2022-10-16T00:07:25;100782.91;;;8.98;68.97
59168;BME280;44948;55.046;73.266;2022-10-16T00:09:07;100783.66;;;9.00;68.84
59168;BME280;44948;55.046;73.266;2022-10-16T00:10:49;100761.97;;;8.82;69.92
59168;BME280;44948;55.046;73.266;2022-10-16T00:12:32;100780.56;;;8.93;69.20
59168;BME280;44948;55.046;73.266;2022-10-16T00:14:14;100784.84;;;8.94;69.14
59168;BME280;44948;55.046;73.266;2022-10-16T00:15:57;100781.47;;;8.92;68.38
59168;BME280;44948;55.046;73.266;2022-10-16T00:17:39;100786.81;;;8.91;68.79
59168;BME280;44948;55.046;73.266;2022-10-16T00:19:24;100776.47;;;8.88;68.40
59168;BME280;44948;55.046;73.266;2022-10-16T00:21:12;100780.78;;;8.89;68.11
59168;BME280;44948;55.046;73.266;2022-10-16T00:22:55;100755.81;;;8.68;68.46
59168;BME280;44948;55.046;73.266;2022-10-16T00:24:37;100785.78;;;8.78;68.04
59168;BME280;44948;55.046;73.266;2022-10-16T00:26:19;100761.41;;;8.61;67.75
59168;BME280;44948;55.046;73.266;2022-10-16T00:28:02;100783.56;;;8.70;68.04
59168;BME280;44948;55.046;73.266;2022-10-16T00:29:44;100788.13;;;8.67;68.43
59168;BME280;44948;55.046;73.266;2022-10-16T00:31:26;100784.75;;;8.64;68.42
59168;BME280;44948;55.046;73.266;2022-10-16T00:33:09;100782.41;;;8.60;67.81
59168;BME280;44948;55.046;73.266;2022-10-16T00:34:51;100783.44;;;8.57;68.61
59168;BME280;44948;55.046;73.266;2022-10-16T00:36:36;100738.34;;;8.21;68.76
59168;BME280;44948;55.046;73.266;2022-10-16T00:38:18;100786.16;;;8.39;68.99
59168;BME280;44948;55.046;73.266;2022-10-16T00:40:00;100785.47;;;8.35;68.75
59168;BME280;44948;55.046;73.266;2022-10-16T00:41:43;100778.66;;;8.32;68.69
59168;BME280;44948;55.046;73.266;2022-10-16T00:45:35;100780.31;;;8.18;68.90
59168;BME280;44948;55.046;73.266;2022-10-16T00:47:28;100777.28;;;8.10;69.11
59168;BME280;44948;55.046;73.266;2022-10-16T00:49:14;100750.94;;;7.97;68.67
59168;BME280;44948;55.046;73.266;2022-10-16T00:50:58;100769.50;;;8.08;69.33
59168;BME280;44948;55.046;73.266;2022-10-16T00:52:41;100767.16;;;7.69;69.62
59168;BME280;44948;55.046;73.266;2022-10-16T00:54:29;100760.50;;;7.81;70.23
59168;BME280;44948;55.046;73.266;2022-10-16T00:56:12;100764.41;;;7.72;70.37
59168;BME280;44948;55.046;73.266;2022-10-16T00:57:54;100743.53;;;7.55;71.14
59168;BME280;44948;55.046;73.266;2022-10-16T00:59:39;100765.56;;;7.66;71.74
59168;BME280;44948;55.046;73.266;2022-10-16T01:01:22;100768.19;;;7.66;70.05
59168;BME280;44948;55.046;73.266;2022-10-16T01:03:40;100774.84;;;7.55;70.41
59168;BME280;44948;55.046;73.266;2022-10-16T01:05:23;100768.66;;;7.57;70.93
59168;BME280;44948;55.046;73.266;2022-10-16T01:07:27;100774.00;;;7.54;70.67
59168;BME280;44948;55.046;73.266;2022-10-16T01:11:22;100772.41;;;7.34;70.89
59168;BME280;44948;55.046;73.266;2022-10-16T01:13:33;100748.72;;;7.20;70.79
59168;BME280;44948;55.046;73.266;2022-10-16T01:17:13;100771.69;;;7.31;70.27
59168;BME280;44948;55.046;73.266;2022-10-16T01:19:14;100783.53;;;7.19;70.21
59168;BME280;44948;55.046;73.266;2022-10-16T01:21:04;100777.31;;;7.22;70.29
59168;BME280;44948;55.046;73.266;2022-10-16T01:23:35;100772.09;;;7.04;70.50
59168;BME280;44948;55.046;73.266;2022-10-16T01:25:21;100779.22;;;7.01;71.26
59168;BME280;44948;55.046;73.266;2022-10-16T01:27:23;100781.81;;;7.01;71.87
59168;BME280;44948;55.046;73.266;2022-10-16T01:30:58;100785.44;;;6.98;71.10
59168;BME280;44948;55.046;73.266;2022-10-16T01:32:45;100779.38;;;6.98;71.12
59168;BME280;44948;55.046;73.266;2022-10-16T01:34:53;100773.03;;;6.84;70.67
59168;BME280;44948;55.046;73.266;2022-10-16T01:36:40;100774.56;;;6.89;71.16
59168;BME280;44948;55.046;73.266;2022-10-16T01:38:31;100781.78;;;6.83;70.75
59168;BME280;44948;55.046;73.266;2022-10-16T01:40:17;100766.97;;;6.84;71.97
59168;BME280;44948;55.046;73.266;2022-10-16T01:42:07;100767.59;;;6.89;71.25
59168;BME280;44948;55.046;73.266;2022-10-16T01:44:30;100774.88;;;6.82;71.74
59168;BME280;44948;55.046;73.266;2022-10-16T01:46:16;100774.47;;;6.92;71.54
59168;BME280;44948;55.046;73.266;2022-10-16T01:48:01;100736.91;;;6.77;71.93
59168;BME280;44948;55.046;73.266;2022-10-16T01:49:46;100768.09;;;6.97;71.78
59168;BME280;44948;55.046;73.266;2022-10-16T01:51:29;100753.88;;;6.85;71.38
59168;BME280;44948;55.046;73.266;2022-10-16T01:53:13;100776.75;;;6.98;72.44
59168;BME280;44948;55.046;73.266;2022-10-16T01:54:57;100775.00;;;6.98;71.70
59168;BME280;44948;55.046;73.266;2022-10-16T01:56:42;100780.13;;;7.00;72.31
59168;BME280;44948;55.046;73.266;2022-10-16T01:58:25;100777.38;;;7.03;71.87
59168;BME280;44948;55.046;73.266;2022-10-16T02:00:11;100747.66;;;6.88;71.77
59168;BME280;44948;55.046;73.266;2022-10-16T02:02:05;100767.78;;;7.03;72.06
59168;BME280;44948;55.046;73.266;2022-10-16T02:03:53;100771.13;;;7.07;72.62
59168;BME280;44948;55.046;73.266;2022-10-16T02:05:43;100769.28;;;7.09;72.82
59168;BME280;44948;55.046;73.266;2022-10-16T02:07:26;100758.97;;;7.06;73.41
59168;BME280;44948;55.046;73.266;2022-10-16T02:09:09;100760.69;;;7.07;73.24
59168;BME280;44948;55.046;73.266;2022-10-16T02:10:51;100760.84;;;7.21;73.36
59168;BME280;44948;55.046;73.266;2022-10-16T02:12:36;100760.63;;;7.26;72.22
59168;BME280;44948;55.046;73.266;2022-10-16T02:14:21;100757.88;;;7.29;72.22
59168;BME280;44948;55.046;73.266;2022-10-16T02:16:07;100749.19;;;7.28;72.39
59168;BME280;44948;55.046;73.266;2022-10-16T02:17:52;100761.97;;;7.34;72.09
59168;BME280;44948;55.046;73.266;2022-10-16T02:19:34;100757.41;;;7.38;72.05
59168;BME280;44948;55.046;73.266;2022-10-16T02:21:25;100736.16;;;7.28;71.17
59168;BME280;44948;55.046;73.266;2022-10-16T02:23:12;100764.72;;;7.49;71.29
59168;BME280;44948;55.046;73.266;2022-10-16T02:25:07;100755.22;;;7.48;71.02
59168;BME280;44948;55.046;73.266;2022-10-16T02:28:45;100764.41;;;7.55;70.01
59168;BME280;44948;55.046;73.266;2022-10-16T02:30:42;100761.88;;;7.53;69.76
59168;BME280;44948;55.046;73.266;2022-10-16T02:32:30;100760.59;;;7.62;69.41
59168;BME280;44948;55.046;73.266;2022-10-16T02:34:15;100757.06;;;7.63;69.68
59168;BME280;44948;55.046;73.266;2022-10-16T02:35:58;100761.94;;;7.69;69.26
59168;BME280;44948;55.046;73.266;2022-10-16T02:37:41;100736.50;;;7.57;68.85
59168;BME280;44948;55.046;73.266;2022-10-16T02:39:24;100761.50;;;7.43;70.26
59168;BME280;44948;55.046;73.266;2022-10-16T02:41:08;100760.44;;;7.65;69.99
59168;BME280;44948;55.046;73.266;2022-10-16T02:42:52;100774.84;;;7.72;69.94
59168;BME280;44948;55.046;73.266;2022-10-16T02:44:34;100765.78;;;7.79;68.46
59168;BME280;44948;55.046;73.266;2022-10-16T02:46:17;100769.00;;;7.84;68.58
59168;BME280;44948;55.046;73.266;2022-10-16T02:48:00;100773.13;;;7.88;68.21
59168;BME280;44948;55.046;73.266;2022-10-16T02:49:42;100761.56;;;7.94;68.12
59168;BME280;44948;55.046;73.266;2022-10-16T02:51:25;100766.78;;;7.94;67.29
59168;BME280;44948;55.046;73.266;2022-10-16T02:53:07;100757.84;;;7.98;68.13
59168;BME280;44948;55.046;73.266;2022-10-16T02:54:49;100766.53;;;7.98;67.39
59168;BME280;44948;55.046;73.266;2022-10-16T02:56:31;100767.97;;;8.04;68.20
59168;BME280;44948;55.046;73.266;2022-10-16T02:58:14;100771.19;;;8.09;66.51
59168;BME280;44948;55.046;73.266;2022-10-16T02:59:56;100758.06;;;8.11;66.86
59168;BME280;44948;55.046;73.266;2022-10-16T03:01:38;100764.81;;;8.15;66.73
59168;BME280;44948;55.046;73.266;2022-10-16T03:03:21;100767.84;;;8.23;66.54
59168;BME280;44948;55.046;73.266;2022-10-16T03:05:04;100767.69;;;8.26;66.18
59168;BME280;44948;55.046;73.266;2022-10-16T03:06:46;100765.66;;;8.31;66.47
59168;BME280;44948;55.046;73.266;2022-10-16T03:08:29;100770.72;;;8.34;66.16
59168;BME280;44948;55.046;73.266;2022-10-16T03:10:11;100763.47;;;8.39;66.47
59168;BME280;44948;55.046;73.266;2022-10-16T03:11:53;100759.94;;;8.40;65.14
59168;BME280;44948;55.046;73.266;2022-10-16T03:13:35;100762.31;;;8.45;65.30
59168;BME280;44948;55.046;73.266;2022-10-16T03:15:18;100745.78;;;8.44;65.74
59168;BME280;44948;55.046;73.266;2022-10-16T03:17:02;100754.06;;;8.52;64.92
59168;BME280;44948;55.046;73.266;2022-10-16T03:18:48;100748.66;;;8.55;64.48
59168;BME280;44948;55.046;73.266;2022-10-16T03:20:31;100746.72;;;8.59;64.77
59168;BME280;44948;55.046;73.266;2022-10-16T03:22:13;100755.16;;;8.64;64.55
59168;BME280;44948;55.046;73.266;2022-10-16T03:23:55;100744.44;;;8.69;64.81
59168;BME280;44948;55.046;73.266;2022-10-16T03:25:38;100746.13;;;8.70;64.98
59168;BME280;44948;55.046;73.266;2022-10-16T03:27:20;100744.25;;;8.72;64.11
59168;BME280;44948;55.046;73.266;2022-10-16T03:29:03;100743.28;;;8.74;63.56
59168;BME280;44948;55.046;73.266;2022-10-16T03:30:45;100744.13;;;8.75;63.60
59168;BME280;44948;55.046;73.266;2022-10-16T03:32:27;100738.44;;;8.82;63.69
59168;BME280;44948;55.046;73.266;2022-10-16T03:34:10;100745.28;;;8.85;63.41
59168;BME280;44948;55.046;73.266;2022-10-16T03:35:53;100746.63;;;8.92;63.26
59168;BME280;44948;55.046;73.266;2022-10-16T03:37:35;100745.88;;;8.58;63.87
59168;BME280;44948;55.046;73.266;2022-10-16T03:39:17;100731.78;;;8.77;62.87
59168;BME280;44948;55.046;73.266;2022-10-16T03:41:00;100741.63;;;8.87;63.09
59168;BME280;44948;55.046;73.266;2022-10-16T03:42:43;100725.38;;;8.82;63.16
59168;BME280;44948;55.046;73.266;2022-10-16T03:44:25;100734.78;;;9.01;62.30
59168;BME280;44948;55.046;73.266;2022-10-16T03:46:07;100740.69;;;9.04;61.97
59168;BME280;44948;55.046;73.266;2022-10-16T03:47:49;100734.94;;;9.13;62.05
59168;BME280;44948;55.046;73.266;2022-10-16T03:49:32;100738.88;;;9.20;61.64
59168;BME280;44948;55.046;73.266;2022-10-16T03:51:14;100693.59;;;9.04;62.46
59168;BME280;44948;55.046;73.266;2022-10-16T03:52:56;100714.31;;;9.23;62.21
59168;BME280;44948;55.046;73.266;2022-10-16T03:54:38;100740.13;;;9.45;61.99
59168;BME280;44948;55.046;73.266;2022-10-16T03:56:21;100744.78;;;9.54;62.73
59168;BME280;44948;55.046;73.266;2022-10-16T03:58:03;100740.91;;;9.61;62.80
59168;BME280;44948;55.046;73.266;2022-10-16T03:59:45;100738.28;;;9.61;61.59
59168;BME280;44948;55.046;73.266;2022-10-16T04:01:27;100744.28;;;9.63;61.83
59168;BME280;44948;55.046;73.266;2022-10-16T04:03:10;100737.06;;;9.67;61.20
59168;BME280;44948;55.046;73.266;2022-10-16T04:04:52;100741.38;;;9.68;61.16
59168;BME280;44948;55.046;73.266;2022-10-16T04:06:35;100736.03;;;9.69;61.69
59168;BME280;44948;55.046;73.266;2022-10-16T04:08:17;100722.09;;;9.69;60.99
59168;BME280;44948;55.046;73.266;2022-10-16T04:10:00;100725.47;;;9.71;61.15
59168;BME280;44948;55.046;73.266;2022-10-16T04:11:42;100724.09;;;9.79;61.15
59168;BME280;44948;55.046;73.266;2022-10-16T04:13:24;100729.78;;;9.86;60.46
59168;BME280;44948;55.046;73.266;2022-10-16T04:15:07;100739.44;;;10.00;59.95
59168;BME280;44948;55.046;73.266;2022-10-16T04:16:49;100740.63;;;10.08;59.41
59168;BME280;44948;55.046;73.266;2022-10-16T04:18:31;100732.31;;;10.16;58.57
59168;BME280;44948;55.046;73.266;2022-10-16T04:20:14;100733.81;;;10.20;58.91
59168;BME280;44948;55.046;73.266;2022-10-16T04:21:56;100734.94;;;10.30;58.90
59168;BME280;44948;55.046;73.266;2022-10-16T04:23:38;100680.28;;;10.10;58.83
59168;BME280;44948;55.046;73.266;2022-10-16T04:25:21;100723.59;;;10.44;58.20
59168;BME280;44948;55.046;73.266;2022-10-16T04:27:03;100708.53;;;10.33;58.14
59168;BME280;44948;55.046;73.266;2022-10-16T04:28:45;100736.31;;;10.50;57.98
59168;BME280;44948;55.046;73.266;2022-10-16T04:30:27;100732.25;;;10.59;58.29
59168;BME280;44948;55.046;73.266;2022-10-16T04:32:10;100728.50;;;10.63;57.70
59168;BME280;44948;55.046;73.266;2022-10-16T04:33:52;100728.09;;;10.69;57.91
59168;BME280;44948;55.046;73.266;2022-10-16T04:35:34;100740.81;;;10.75;57.37
59168;BME280;44948;55.046;73.266;2022-10-16T04:37:16;100736.16;;;10.80;57.11
59168;BME280;44948;55.046;73.266;2022-10-16T04:38:58;100714.59;;;10.75;56.40
59168;BME280;44948;55.046;73.266;2022-10-16T04:40:42;100733.03;;;10.88;56.43
59168;BME280;44948;55.046;73.266;2022-10-16T04:42:24;100730.03;;;10.53;57.62
59168;BME280;44948;55.046;73.266;2022-10-16T04:44:06;100724.91;;;10.78;56.83
59168;BME280;44948;55.046;73.266;2022-10-16T04:45:48;100703.25;;;10.74;56.44
59168;BME280;44948;55.046;73.266;2022-10-16T04:47:32;100729.94;;;10.95;56.60
59168;BME280;44948;55.046;73.266;2022-10-16T04:49:14;100721.84;;;10.98;56.48
59168;BME280;44948;55.046;73.266;2022-10-16T04:50:57;100725.66;;;11.07;56.88
59168;BME280;44948;55.046;73.266;2022-10-16T04:52:39;100719.59;;;11.19;56.29
59168;BME280;44948;55.046;73.266;2022-10-16T04:54:21;100716.66;;;11.24;55.65
59168;BME280;44948;55.046;73.266;2022-10-16T04:56:03;100723.00;;;11.34;55.97
59168;BME280;44948;55.046;73.266;2022-10-16T04:57:46;100720.06;;;11.39;56.44
59168;BME280;44948;55.046;73.266;2022-10-16T04:59:28;100661.63;;;11.10;56.20
59168;BME280;44948;55.046;73.266;2022-10-16T05:01:10;100723.88;;;11.47;55.65
59168;BME280;44948;55.046;73.266;2022-10-16T05:02:52;100717.03;;;11.45;55.90
59168;BME280;44948;55.046;73.266;2022-10-16T05:04:35;100717.56;;;11.50;55.25
59168;BME280;44948;55.046;73.266;2022-10-16T05:06:17;100721.75;;;11.52;55.30
59168;BME280;44948;55.046;73.266;2022-10-16T05:08:00;100714.41;;;11.57;55.32
59168;BME280;44948;55.046;73.266;2022-10-16T05:09:42;100711.25;;;11.65;55.41
59168;BME280;44948;55.046;73.266;2022-10-16T05:11:24;100710.00;;;11.71;55.43
59168;BME280;44948;55.046;73.266;2022-10-16T05:13:07;100704.34;;;11.77;54.71
59168;BME280;44948;55.046;73.266;2022-10-16T05:14:49;100703.91;;;11.83;55.17
59168;BME280;44948;55.046;73.266;2022-10-16T05:16:31;100714.53;;;11.94;54.72
59168;BME280;44948;55.046;73.266;2022-10-16T05:18:14;100712.81;;;12.06;54.53
59168;BME280;44948;55.046;73.266;2022-10-16T05:19:56;100710.19;;;12.18;53.55
59168;BME280;44948;55.046;73.266;2022-10-16T05:21:38;100705.97;;;12.16;53.08
59168;BME280;44948;55.046;73.266;2022-10-16T05:23:20;100704.41;;;12.13;53.29
59168;BME280;44948;55.046;73.266;2022-10-16T05:25:02;100690.22;;;12.03;53.89
59168;BME280;44948;55.046;73.266;2022-10-16T05:26:44;100710.38;;;12.15;52.51
59168;BME280;44948;55.046;73.266;2022-10-16T05:28:29;100710.94;;;12.20;52.10
59168;BME280;44948;55.046;73.266;2022-10-16T05:30:11;100709.97;;;12.21;53.32
59168;BME280;44948;55.046;73.266;2022-10-16T05:31:54;100712.28;;;12.26;53.97
59168;BME280;44948;55.046;73.266;2022-10-16T05:33:36;100706.59;;;12.32;53.04
59168;BME280;44948;55.046;73.266;2022-10-16T05:35:19;100710.78;;;12.35;53.04
59168;BME280;44948;55.046;73.266;2022-10-16T05:37:01;100714.16;;;12.37;53.59
59168;BME280;44948;55.046;73.266;2022-10-16T05:38:43;100712.03;;;12.42;53.01
59168;BME280;44948;55.046;73.266;2022-10-16T05:40:25;100715.41;;;12.44;52.60
59168;BME280;44948;55.046;73.266;2022-10-16T05:42:07;100694.41;;;12.31;52.59
59168;BME280;44948;55.046;73.266;2022-10-16T05:43:49;100709.63;;;12.39;52.27
59168;BME280;44948;55.046;73.266;2022-10-16T05:45:32;100706.56;;;12.45;52.81
59168;BME280;44948;55.046;73.266;2022-10-16T05:47:14;100716.88;;;12.48;52.80
59168;BME280;44948;55.046;73.266;2022-10-16T05:48:56;100717.72;;;12.48;52.72
59168;BME280;44948;55.046;73.266;2022-10-16T05:50:38;100696.25;;;12.42;51.96
59168;BME280;44948;55.046;73.266;2022-10-16T05:52:20;100717.69;;;12.61;52.05
59168;BME280;44948;55.046;73.266;2022-10-16T05:54:02;100726.19;;;12.65;52.82
59168;BME280;44948;55.046;73.266;2022-10-16T05:55:51;100718.50;;;12.62;51.71
59168;BME280;44948;55.046;73.266;2022-10-16T05:57:34;100716.41;;;12.54;51.49
59168;BME280;44948;55.046;73.266;2022-10-16T05:59:16;100720.56;;;12.45;52.35
59168;BME280;44948;55.046;73.266;2022-10-16T06:01:17;100712.09;;;12.29;52.30
59168;BME280;44948;55.046;73.266;2022-10-16T06:03:00;100720.81;;;12.30;52.58
59168;BME280;44948;55.046;73.266;2022-10-16T06:04:42;100712.84;;;12.18;51.49
59168;BME280;44948;55.046;73.266;2022-10-16T06:06:26;100713.34;;;12.11;51.76
59168;BME280;44948;55.046;73.266;2022-10-16T06:08:08;100715.56;;;12.04;52.21
59168;BME280;44948;55.046;73.266;2022-10-16T06:09:52;100727.00;;;12.03;52.34
59168;BME280;44948;55.046;73.266;2022-10-16T06:11:34;100706.84;;;11.65;52.83
59168;BME280;44948;55.046;73.266;2022-10-16T06:13:16;100687.00;;;11.61;52.59
59168;BME280;44948;55.046;73.266;2022-10-16T06:14:58;100716.22;;;11.82;51.88
59168;BME280;44948;55.046;73.266;2022-10-16T06:16:40;100712.63;;;11.71;52.19
59168;BME280;44948;55.046;73.266;2022-10-16T06:18:22;100718.22;;;11.79;52.92
59168;BME280;44948;55.046;73.266;2022-10-16T06:20:05;100720.84;;;11.79;52.82
59168;BME280;44948;55.046;73.266;2022-10-16T06:21:47;100703.38;;;11.78;53.23
59168;BME280;44948;55.046;73.266;2022-10-16T06:23:30;100713.25;;;11.87;53.04
59168;BME280;44948;55.046;73.266;2022-10-16T06:25:12;100709.16;;;11.83;52.74
59168;BME280;44948;55.046;73.266;2022-10-16T06:26:54;100689.69;;;11.73;52.91
59168;BME280;44948;55.046;73.266;2022-10-16T06:28:37;100707.88;;;11.88;53.14
59168;BME280;44948;55.046;73.266;2022-10-16T06:30:20;100714.31;;;11.97;52.93
59168;BME280;44948;55.046;73.266;2022-10-16T06:32:03;100706.72;;;12.05;53.01
59168;BME280;44948;55.046;73.266;2022-10-16T06:33:49;100713.53;;;12.08;52.96
59168;BME280;44948;55.046;73.266;2022-10-16T06:35:32;100708.38;;;12.06;52.52
59168;BME280;44948;55.046;73.266;2022-10-16T06:37:14;100709.56;;;12.02;52.51
59168;BME280;44948;55.046;73.266;2022-10-16T06:38:56;100686.63;;;11.91;53.15
59168;BME280;44948;55.046;73.266;2022-10-16T06:40:38;100701.47;;;12.05;53.33
59168;BME280;44948;55.046;73.266;2022-10-16T06:48:47;100693.78;;;12.02;55.04
59168;BME280;44948;55.046;73.266;2022-10-16T06:50:30;100685.28;;;12.11;54.55
59168;BME280;44948;55.046;73.266;2022-10-16T06:52:12;100671.91;;;12.14;54.63
59168;BME280;44948;55.046;73.266;2022-10-16T06:53:55;100692.31;;;12.23;54.29
59168;BME280;44948;55.046;73.266;2022-10-16T06:55:40;100690.00;;;12.19;54.10
59168;BME280;44948;55.046;73.266;2022-10-16T06:57:23;100683.16;;;12.16;54.07
59168;BME280;44948;55.046;73.266;2022-10-16T06:59:05;100683.69;;;12.21;54.05
59168;BME280;44948;55.046;73.266;2022-10-16T07:00:47;100676.84;;;12.19;54.32
59168;BME280;44948;55.046;73.266;2022-10-16T07:02:29;100667.38;;;12.16;54.88
59168;BME280;44948;55.046;73.266;2022-10-16T07:04:12;100663.72;;;12.19;55.39
59168;BME280;44948;55.046;73.266;2022-10-16T07:05:55;100656.44;;;12.22;55.34
59168;BME280;44948;55.046;73.266;2022-10-16T07:07:37;100662.00;;;12.31;55.40
59168;BME280;44948;55.046;73.266;2022-10-16T07:09:20;100670.59;;;12.45;55.04
59168;BME280;44948;55.046;73.266;2022-10-16T07:11:11;100665.88;;;12.62;55.51
59168;BME280;44948;55.046;73.266;2022-10-16T07:12:53;100666.75;;;12.73;55.38
59168;BME280;44948;55.046;73.266;2022-10-16T07:14:35;100662.41;;;12.85;54.47
59168;BME280;44948;55.046;73.266;2022-10-16T07:16:20;100670.47;;;12.95;54.52
59168;BME280;44948;55.046;73.266;2022-10-16T07:18:02;100665.09;;;12.96;54.67
59168;BME280;44948;55.046;73.266;2022-10-16T07:19:45;100645.53;;;12.88;53.92
59168;BME280;44948;55.046;73.266;2022-10-16T07:21:32;100667.38;;;13.01;54.45
59168;BME280;44948;55.046;73.266;2022-10-16T07:23:18;100662.81;;;13.03;54.87
59168;BME280;44948;55.046;73.266;2022-10-16T07:25:00;100672.63;;;13.01;55.06
59168;BME280;44948;55.046;73.266;2022-10-16T07:26:44;100664.13;;;12.97;55.87
59168;BME280;44948;55.046;73.266;2022-10-16T07:28:27;100644.09;;;12.83;55.21
59168;BME280;44948;55.046;73.266;2022-10-16T07:30:10;100634.75;;;12.79;55.06
59168;BME280;44948;55.046;73.266;2022-10-16T07:31:52;100657.25;;;12.83;56.10
59168;BME280;44948;55.046;73.266;2022-10-16T07:33:35;100656.47;;;12.94;56.73
59168;BME280;44948;55.046;73.266;2022-10-16T07:35:17;100658.03;;;13.08;56.12
59168;BME280;44948;55.046;73.266;2022-10-16T07:36:59;100654.00;;;13.15;55.50
59168;BME280;44948;55.046;73.266;2022-10-16T07:38:42;100640.69;;;13.05;56.18
59168;BME280;44948;55.046;73.266;2022-10-16T07:40:24;100647.97;;;13.02;56.05
59168;BME280;44948;55.046;73.266;2022-10-16T07:42:08;100614.41;;;12.81;56.34
59168;BME280;44948;55.046;73.266;2022-10-16T07:43:54;100629.59;;;12.78;55.92
59168;BME280;44948;55.046;73.266;2022-10-16T07:45:47;100633.38;;;12.74;56.68
59168;BME280;44948;55.046;73.266;2022-10-16T07:47:30;100621.53;;;12.68;56.89
59168;BME280;44948;55.046;73.266;2022-10-16T07:49:15;100618.53;;;12.62;56.88
59168;BME280;44948;55.046;73.266;2022-10-16T07:51:07;100621.94;;;12.51;57.26
59168;BME280;44948;55.046;73.266;2022-10-16T07:52:49;100620.19;;;12.63;57.58
59168;BME280;44948;55.046;73.266;2022-10-16T07:54:32;100597.25;;;12.65;57.42
59168;BME280;44948;55.046;73.266;2022-10-16T07:56:15;100622.13;;;12.96;57.14
59168;BME280;44948;55.046;73.266;2022-10-16T07:57:58;100621.03;;;12.98;56.42
59168;BME280;44948;55.046;73.266;2022-10-16T07:59:40;100611.59;;;12.96;56.53
59168;BME280;44948;55.046;73.266;2022-10-16T08:01:22;100625.94;;;13.03;55.80
59168;BME280;44948;55.046;73.266;2022-10-16T08:03:04;100626.22;;;13.11;55.69
59168;BME280;44948;55.046;73.266;2022-10-16T08:04:47;100616.66;;;13.21;55.29
59168;BME280;44948;55.046;73.266;2022-10-16T08:06:35;100608.03;;;13.19;55.67
59168;BME280;44948;55.046;73.266;2022-10-16T08:08:18;100604.34;;;13.33;55.10
59168;BME280;44948;55.046;73.266;2022-10-16T08:10:00;100637.94;;;13.53;55.57
59168;BME280;44948;55.046;73.266;2022-10-16T08:11:43;100636.63;;;13.70;55.54
59168;BME280;44948;55.046;73.266;2022-10-16T08:13:25;100635.41;;;13.74;55.76
59168;BME280;44948;55.046;73.266;2022-10-16T08:15:08;100636.00;;;13.78;55.34
59168;BME280;44948;55.046;73.266;2022-10-16T08:16:51;100622.47;;;13.71;55.18
59168;BME280;44948;55.046;73.266;2022-10-16T08:18:34;100627.03;;;13.69;55.02
59168;BME280;44948;55.046;73.266;2022-10-16T08:20:17;100627.50;;;13.52;55.52
59168;BME280;44948;55.046;73.266;2022-10-16T08:22:00;100624.09;;;13.38;55.98
59168;BME280;44948;55.046;73.266;2022-10-16T08:23:42;100627.94;;;13.34;55.59
59168;BME280;44948;55.046;73.266;2022-10-16T08:25:25;100620.81;;;13.01;56.67
59168;BME280;44948;55.046;73.266;2022-10-16T08:27:08;100617.38;;;13.23;56.26
59168;BME280;44948;55.046;73.266;2022-10-16T08:28:50;100620.00;;;13.23;56.75
59168;BME280;44948;55.046;73.266;2022-10-16T08:30:33;100615.34;;;13.15;56.58
59168;BME280;44948;55.046;73.266;2022-10-16T08:32:16;100624.19;;;13.26;56.51
59168;BME280;44948;55.046;73.266;2022-10-16T08:33:58;100630.09;;;13.29;56.58
59168;BME280;44948;55.046;73.266;2022-10-16T08:35:40;100630.09;;;13.29;55.87
59168;BME280;44948;55.046;73.266;2022-10-16T08:37:22;100620.00;;;13.23;56.51
59168;BME280;44948;55.046;73.266;2022-10-16T08:39:04;100620.25;;;13.20;56.33
59168;BME280;44948;55.046;73.266;2022-10-16T08:40:47;100614.22;;;13.07;56.18
59168;BME280;44948;55.046;73.266;2022-10-16T08:47:02;100611.59;;;13.07;56.66
59168;BME280;44948;55.046;73.266;2022-10-16T08:48:52;100590.00;;;12.91;56.88
59168;BME280;44948;55.046;73.266;2022-10-16T08:50:38;100616.38;;;13.02;56.66
59168;BME280;44948;55.046;73.266;2022-10-16T08:52:21;100618.28;;;13.00;56.69
59168;BME280;44948;55.046;73.266;2022-10-16T08:56:05;100567.50;;;12.87;56.81
59168;BME280;44948;55.046;73.266;2022-10-16T08:57:47;100607.78;;;13.11;56.33
59168;BME280;44948;55.046;73.266;2022-10-16T08:59:29;100607.56;;;13.14;56.73
59168;BME280;44948;55.046;73.266;2022-10-16T09:01:14;100608.88;;;13.20;56.58
59168;BME280;44948;55.046;73.266;2022-10-16T09:07:02;100598.53;;;13.05;56.34
59168;BME280;44948;55.046;73.266;2022-10-16T09:10:56;100602.03;;;13.06;56.30
59168;BME280;44948;55.046;73.266;2022-10-16T09:16:44;100561.16;;;12.78;56.32
59168;BME280;44948;55.046;73.266;2022-10-16T09:18:40;100603.34;;;13.00;56.90
59168;BME280;44948;55.046;73.266;2022-10-16T09:20:42;100608.00;;;12.97;56.91
59168;BME280;44948;55.046;73.266;2022-10-16T09:22:27;100591.56;;;12.93;57.13
59168;BME280;44948;55.046;73.266;2022-10-16T09:24:18;100600.81;;;12.99;57.40
59168;BME280;44948;55.046;73.266;2022-10-16T09:26:02;100606.91;;;12.99;57.65
59168;BME280;44948;55.046;73.266;2022-10-16T09:27:48;100606.09;;;12.99;57.48
59168;BME280;44948;55.046;73.266;2022-10-16T09:29:32;100532.84;;;12.58;57.82
59168;BME280;44948;55.046;73.266;2022-10-16T09:31:19;100604.63;;;12.95;57.81
59168;BME280;44948;55.046;73.266;2022-10-16T09:33:02;100600.09;;;12.97;57.87
59168;BME280;44948;55.046;73.266;2022-10-16T09:34:52;100596.22;;;12.90;57.59